createdAt,value
2023-04-04T05:05:58.324Z,-17.28
2023-04-04T05:11:03.892Z,-15.86
2023-04-04T05:16:09.503Z,-14.76
2023-04-04T05:21:15.321Z,-13.93
2023-04-04T05:26:19.777Z,-13.86
2023-04-04T05:31:27.400Z,-13.57
2023-04-04T05:36:33.274Z,-15.32
2023-04-04T05:41:41.634Z,-14.15
2023-04-04T05:46:50.619Z,-13.23
2023-04-04T05:51:58.528Z,-12.78
2023-04-04T05:57:03.078Z,-11.94
2023-04-04T06:02:15.785Z,-12.38
2023-04-04T06:07:26.484Z,-12.56
2023-04-04T06:12:29.949Z,-13.31
2023-04-04T06:17:33.572Z,-12.65
2023-04-04T06:22:39.126Z,-10.87
2023-04-04T06:27:43.674Z,-11.31
2023-04-04T06:32:48.349Z,-11.39
2023-04-04T06:37:57.347Z,-12.32
2023-04-04T06:43:02.495Z,-11.31
2023-04-04T06:48:14.198Z,-11.30
2023-04-04T06:53:19.268Z,-10.01
2023-04-04T06:58:22.814Z,-10.85
2023-04-04T07:03:26.566Z,-11.07
2023-04-04T07:08:36.110Z,-9.75
2023-04-04T07:13:42.966Z,-9.92
2023-04-04T07:18:46.585Z,-9.99
2023-04-04T07:23:54.515Z,-11.09
2023-04-04T07:28:57.846Z,-11.91
2023-04-04T07:34:01.498Z,-11.94
2023-04-04T07:39:06.874Z,-11.07
2023-04-04T07:44:12.644Z,-11.32
2023-04-04T07:49:18.610Z,-11.55
2023-04-04T07:54:24.013Z,-11.55
2023-04-04T07:59:27.420Z,-12.13
2023-04-04T08:04:34.002Z,-12.38
2023-04-04T08:09:39.765Z,-12.30
2023-04-04T08:14:43.741Z,-12.40
2023-04-04T08:19:47.812Z,-12.65
2023-04-04T08:24:53.871Z,-12.69
2023-04-04T08:29:57.614Z,-12.27
2023-04-04T08:35:01.310Z,-12.59
2023-04-04T08:40:08.288Z,-12.55
2023-04-04T08:45:15.448Z,-12.48
2023-04-04T08:50:20.705Z,-12.01
2023-04-04T08:55:26.475Z,-11.70
2023-04-04T09:00:36.095Z,-11.84
2023-04-04T09:06:25.719Z,-11.95
2023-04-04T09:11:37.896Z,-11.79
2023-04-04T09:16:46.627Z,-11.36
2023-04-04T09:21:55.640Z,-11.26
2023-04-04T09:27:02.621Z,-11.40
2023-04-04T09:32:09.114Z,-11.31
2023-04-04T09:37:15.765Z,-11.05
2023-04-04T09:42:21.174Z,-10.81
2023-04-04T09:52:35.927Z,-11.29
2023-04-04T09:57:44.890Z,-11.86
2023-04-04T10:02:50.069Z,-11.67
2023-04-04T10:07:54.033Z,-11.37
2023-04-04T10:13:07.215Z,-10.62
2023-04-04T10:18:11.709Z,-10.68
2023-04-04T10:23:15.923Z,-11.22
2023-04-04T10:28:23.288Z,-11.25
2023-04-04T10:33:36.672Z,-11.32
2023-04-04T10:38:43.720Z,-11.44
2023-04-04T10:43:56.931Z,-10.57
2023-04-04T10:49:01.989Z,-10.18
2023-04-04T10:54:07.632Z,-10.61
2023-04-04T10:59:15.406Z,-10.20
2023-04-04T11:04:21.969Z,-10.29
2023-04-04T11:09:40.741Z,-10.50
2023-04-04T11:14:58.161Z,-10.34
2023-04-04T11:20:04.044Z,-10.25
2023-04-04T11:25:36.886Z,-10.15
2023-04-04T11:30:50.358Z,-10.00
2023-04-04T11:35:54.673Z,-9.56
2023-04-04T11:40:59.309Z,-9.58
2023-04-04T11:46:11.258Z,-9.72
2023-04-04T11:51:15.568Z,-10.05
2023-04-04T11:56:22.022Z,-9.74
2023-04-04T12:01:31.172Z,-9.57
2023-04-04T12:06:37.284Z,-9.73
2023-04-04T12:11:41.144Z,-10.08
2023-04-04T12:16:47.382Z,-10.07
2023-04-04T12:21:54.445Z,-9.43
2023-04-04T12:26:58.726Z,-9.01
2023-04-04T12:32:13.534Z,-9.58
2023-04-04T12:37:19.742Z,-10.00
2023-04-04T12:42:25.325Z,-9.57
2023-04-04T12:47:32.489Z,-9.31
2023-04-04T12:52:41.130Z,-9.02
2023-04-04T12:57:46.147Z,-9.02
2023-04-04T13:02:51.433Z,-9.22
2023-04-04T13:08:06.486Z,-9.45
2023-04-04T13:13:09.945Z,-9.65
2023-04-04T13:18:19.088Z,-9.51
2023-04-04T13:23:22.997Z,-9.13
2023-04-04T13:28:27.196Z,-8.68
2023-04-04T13:33:34.871Z,-8.65
2023-04-04T13:38:39.849Z,-9.22
2023-04-04T13:43:43.392Z,-9.31
2023-04-04T13:48:48.441Z,-9.52
2023-04-04T13:53:51.981Z,-9.45
2023-04-04T13:58:55.385Z,-9.16
2023-04-04T14:04:01.920Z,-8.89
2023-04-04T14:09:07.451Z,-8.89
2023-04-04T14:14:10.800Z,-9.35
2023-04-04T14:19:17.836Z,-10.01
2023-04-04T14:24:21.792Z,-9.87
2023-04-04T14:29:25.310Z,-9.57
2023-04-04T14:34:30.449Z,-9.41
2023-04-04T14:39:33.982Z,-9.52
2023-04-04T14:44:37.689Z,-9.46
2023-04-04T14:49:44.112Z,-9.35
2023-04-04T14:54:47.750Z,-9.38
2023-04-04T14:59:55.473Z,-9.23
2023-04-04T15:05:01.367Z,-9.58
2023-04-04T15:16:08.617Z,-9.59
2023-04-04T15:21:16.440Z,-9.76
2023-04-04T16:01:57.123Z,-9.84
2023-04-04T16:12:38.732Z,-9.66
2023-04-04T16:17:42.808Z,-9.86
2023-04-04T16:22:58.849Z,-10.01
2023-04-04T16:28:08.673Z,-10.23
2023-04-04T16:33:14.440Z,-10.28
2023-04-04T16:38:30.279Z,-10.44
2023-04-04T16:49:38.713Z,-10.42
2023-04-04T16:55:17.725Z,-10.65
2023-04-04T17:00:27.132Z,-10.68
2023-04-04T17:05:35.667Z,-10.78
2023-04-04T17:10:55.462Z,-10.80
2023-04-04T17:15:59.420Z,-10.63
2023-04-04T17:21:03.123Z,-10.77
2023-04-04T17:36:59.761Z,-11.11
2023-04-04T17:42:23.840Z,-11.23
2023-04-04T17:47:27.823Z,-11.34
2023-04-04T17:52:33.423Z,-11.49
2023-04-04T17:57:38.806Z,-11.82
2023-04-04T18:02:42.475Z,-11.94
2023-04-04T18:07:49.914Z,-12.07
2023-04-04T18:13:09.523Z,-12.08
2023-04-04T18:18:47.978Z,-12.03
2023-04-04T18:35:44.547Z,-12.10
2023-04-04T18:46:30.610Z,-12.20
2023-04-04T18:54:29.153Z,-12.21
2023-04-04T18:58:29.504Z,-12.38
2023-04-04T19:03:56.993Z,-12.38
2023-04-04T19:20:35.499Z,-12.67
2023-04-04T19:31:11.435Z,-12.75
2023-04-04T19:36:21.705Z,-12.97
2023-04-04T19:47:26.836Z,-13.17
2023-04-04T19:52:53.584Z,-13.30
2023-04-04T19:58:30.892Z,-13.47
2023-04-04T20:03:56.197Z,-13.55
2023-04-04T20:09:11.072Z,-13.79
2023-04-04T20:20:00.579Z,-13.91
2023-04-04T20:25:26.670Z,-14.07
2023-04-04T20:31:00.664Z,-14.07
2023-04-04T20:36:30.914Z,-14.11
2023-04-04T20:41:54.110Z,-14.26
2023-04-04T21:03:58.068Z,-14.51
2023-04-04T21:15:37.368Z,-14.74
2023-04-04T21:21:05.626Z,-14.80
2023-04-04T21:26:12.722Z,-14.86
2023-04-04T21:37:06.670Z,-15.09
2023-04-04T21:42:12.099Z,-15.09
